createdAt,value
2018-02-03T00:00:16.742Z,94539.84
2018-02-03T00:02:43.550Z,94563.84
2018-02-03T00:05:10.351Z,94530.75
2018-02-03T00:07:37.132Z,94499.19
2018-02-03T00:10:03.927Z,94507.73
2018-02-03T00:12:30.725Z,94512.69
2018-02-03T00:14:57.512Z,94519.67
2018-02-03T00:17:24.443Z,94505.45
2018-02-03T00:19:51.258Z,94504.23
2018-02-03T00:22:18.051Z,94523.77
2018-02-03T00:24:44.838Z,94525.54
2018-02-03T00:27:11.634Z,94503.46
2018-02-03T00:29:38.431Z,94479.08
2018-02-03T00:32:05.212Z,94475.09
2018-02-03T00:34:31.993Z,94486.42
2018-02-03T00:36:58.796Z,94492.06
2018-02-03T00:39:25.583Z,94495.83
2018-02-03T00:41:52.501Z,94493.27
2018-02-03T00:44:19.299Z,94490.44
2018-02-03T00:46:46.095Z,94479.58
2018-02-03T00:49:12.881Z,94474.23
2018-02-03T00:51:39.679Z,94468.36
2018-02-03T00:54:06.479Z,94453.48
2018-02-03T00:56:33.280Z,94464.05
2018-02-03T00:59:00.218Z,94487.70
2018-02-03T01:01:27.014Z,94487.45
2018-02-03T01:03:53.807Z,94486.16
2018-02-03T01:06:20.737Z,94498.10
2018-02-03T01:08:47.535Z,94486.45
2018-02-03T01:11:14.333Z,94472.95
2018-02-03T01:13:41.117Z,94464.77
2018-02-03T01:16:07.906Z,94470.38
2018-02-03T01:18:34.693Z,94463.55
2018-02-03T01:21:01.472Z,94459.13
2018-02-03T01:23:28.258Z,94414.41
2018-02-03T01:25:55.037Z,94398.48
2018-02-03T01:28:21.833Z,94407.30
2018-02-03T01:30:48.752Z,94402.23
2018-02-03T01:33:15.543Z,94393.01
2018-02-03T01:35:42.335Z,94405.72
2018-02-03T01:38:09.126Z,94396.45
2018-02-03T01:40:35.924Z,94394.75
2018-02-03T01:43:02.849Z,94394.49
2018-02-03T01:45:29.629Z,94399.56
2018-02-03T01:47:56.405Z,94400.11
2018-02-03T01:50:23.199Z,94403.18
2018-02-03T01:52:49.996Z,94398.48
2018-02-03T01:55:16.787Z,94371.84
2018-02-03T01:57:43.564Z,94390.84
2018-02-03T02:00:10.640Z,94374.27
2018-02-03T02:02:37.435Z,94371.34
2018-02-03T02:05:04.222Z,94368.00
2018-02-03T02:07:31.005Z,94366.92
2018-02-03T02:09:57.785Z,94359.65
2018-02-03T02:12:24.568Z,94360.22
2018-02-03T02:14:51.357Z,94357.55
2018-02-03T02:17:18.286Z,94377.63
2018-02-03T02:19:45.068Z,94363.30
2018-02-03T02:22:11.853Z,94352.55
2018-02-03T02:24:38.656Z,94379.08
2018-02-03T02:27:05.445Z,94375.61
2018-02-03T02:29:32.259Z,94394.46
2018-02-03T02:31:59.043Z,94377.77
2018-02-03T02:34:25.821Z,94387.30
2018-02-03T02:36:52.754Z,94388.31
2018-02-03T02:39:19.554Z,94358.84
2018-02-03T02:41:46.350Z,94363.52
2018-02-03T02:44:13.147Z,94368.11
2018-02-03T02:46:39.938Z,94367.43
2018-02-03T02:49:06.721Z,94358.20
2018-02-03T02:51:33.525Z,94359.91
2018-02-03T02:54:00.451Z,94356.97
2018-02-03T02:56:27.233Z,94360.05
2018-02-03T02:58:54.081Z,94343.77
2018-02-03T03:01:20.995Z,94324.04
2018-02-03T03:03:47.795Z,94318.28
2018-02-03T03:06:14.592Z,94320.56
2018-02-03T03:08:41.389Z,94322.34
2018-02-03T03:11:08.182Z,94320.81
2018-02-03T03:13:34.983Z,94322.30
2018-02-03T03:16:01.761Z,94335.80
2018-02-03T03:18:28.556Z,94340.11
2018-02-03T03:20:55.360Z,94323.39
2018-02-03T03:23:22.140Z,94324.19
2018-02-03T03:25:48.926Z,94340.94
2018-02-03T03:28:15.721Z,94350.56
2018-02-03T03:30:42.641Z,94336.45
2018-02-03T03:33:09.425Z,94335.44
2018-02-03T03:35:36.209Z,94344.70
2018-02-03T03:38:02.987Z,94342.23
2018-02-03T03:40:29.768Z,94319.52
2018-02-03T03:42:56.545Z,94318.86
2018-02-03T03:45:23.338Z,94323.53
2018-02-03T03:47:50.270Z,94311.23
2018-02-03T03:50:17.051Z,94285.00
2018-02-03T03:52:43.848Z,94307.86
2018-02-03T03:55:10.645Z,94286.59
2018-02-03T03:57:37.430Z,94293.67
2018-02-03T04:00:05.374Z,94304.14
2018-02-03T04:02:32.153Z,94312.23
2018-02-03T04:04:58.929Z,94303.81
2018-02-03T04:07:25.737Z,94313.08
2018-02-03T04:09:52.516Z,94298.78
2018-02-03T04:12:19.306Z,94306.42
2018-02-03T04:14:46.101Z,94299.18
2018-02-03T04:17:13.042Z,94286.63
2018-02-03T04:19:39.821Z,94284.74
2018-02-03T04:22:06.614Z,94285.89
2018-02-03T04:24:33.436Z,94281.09
2018-02-03T04:27:00.226Z,94292.99
2018-02-03T04:29:27.017Z,94284.95
2018-02-03T04:31:53.864Z,94279.16
2018-02-03T04:34:20.649Z,94283.67
2018-02-03T04:36:47.451Z,94280.06
2018-02-03T04:39:14.252Z,94273.91
2018-02-03T04:41:41.200Z,94294.68
2018-02-03T04:44:07.998Z,94257.44
2018-02-03T04:46:34.779Z,94251.52
2018-02-03T04:49:01.575Z,94260.64
2018-02-03T04:51:28.376Z,94271.69
2018-02-03T04:53:55.179Z,94275.45
2018-02-03T04:56:21.961Z,94248.86
2018-02-03T04:58:48.885Z,94264.98
2018-02-03T05:01:15.699Z,94284.48
2018-02-03T05:03:42.476Z,94262.27
2018-02-03T05:06:09.269Z,94248.38
2018-02-03T05:08:36.049Z,94268.39
2018-02-03T05:11:02.833Z,94287.25
2018-02-03T05:13:29.632Z,94286.46
2018-02-03T05:15:56.412Z,94276.45
2018-02-03T05:18:23.338Z,94283.03
2018-02-03T05:20:50.130Z,94271.09
2018-02-03T05:23:16.922Z,94278.57
2018-02-03T05:25:43.713Z,94268.02
2018-02-03T05:28:10.517Z,94285.86
2018-02-03T05:30:37.316Z,94270.69
2018-02-03T05:33:04.101Z,94276.73
2018-02-03T05:35:31.044Z,94276.59
2018-02-03T05:37:57.885Z,94278.41
2018-02-03T05:40:24.664Z,94273.05
2018-02-03T05:42:51.470Z,94262.27
2018-02-03T05:47:28.985Z,94227.32
2018-02-03T05:49:56.072Z,94248.84
2018-02-03T05:52:23.458Z,94245.66
2018-02-03T05:55:41.870Z,94238.87
2018-02-03T05:58:08.667Z,94244.12
2018-02-03T06:00:35.462Z,94240.61
2018-02-03T06:03:02.265Z,94236.30
2018-02-03T06:05:29.215Z,94239.52
2018-02-03T06:07:56.014Z,94248.73
2018-02-03T06:10:22.810Z,94258.08
2018-02-03T06:12:49.602Z,94249.53
2018-02-03T06:15:16.400Z,94262.88
2018-02-03T06:17:43.187Z,94258.94
2018-02-03T06:20:10.647Z,94267.01
2018-02-03T06:22:37.582Z,94266.91
2018-02-03T06:25:04.364Z,94282.31
2018-02-03T06:27:31.161Z,94282.83
2018-02-03T06:29:57.984Z,94264.39
2018-02-03T06:32:24.786Z,94267.78
2018-02-03T06:34:51.579Z,94265.09
2018-02-03T06:37:18.362Z,94276.53
2018-02-03T06:39:45.139Z,94285.19
2018-02-03T06:42:11.931Z,94251.35
2018-02-03T06:44:38.713Z,94266.12
2018-02-03T06:47:05.504Z,94267.22
2018-02-03T06:49:32.280Z,94257.59
2018-02-03T06:51:59.054Z,94276.24
2018-02-03T06:54:25.846Z,94266.70
2018-02-03T06:59:22.649Z,94229.27
2018-02-03T07:01:49.439Z,94231.36
2018-02-03T07:04:16.230Z,94234.92
2018-02-03T07:06:43.200Z,94237.55
2018-02-03T07:09:09.994Z,94242.86
2018-02-03T07:11:36.804Z,94231.59
2018-02-03T07:14:03.589Z,94189.02
2018-02-03T07:16:30.388Z,94227.62
2018-02-03T07:18:57.537Z,94212.72
2018-02-03T07:21:24.343Z,94215.41
2018-02-03T07:23:51.155Z,94228.75
2018-02-03T07:26:17.978Z,94237.81
2018-02-03T07:28:44.790Z,94232.00
2018-02-03T07:31:11.595Z,94219.70
2018-02-03T07:33:38.377Z,94209.83
2018-02-03T07:36:05.385Z,94194.31
2018-02-03T07:38:32.177Z,94207.23
2018-02-03T07:40:59.009Z,94214.52
2018-02-03T07:43:25.818Z,94191.42
2018-02-03T07:45:52.655Z,94177.01
2018-02-03T07:48:19.609Z,94157.27
2018-02-03T07:50:46.399Z,94201.26
2018-02-03T07:53:13.182Z,94191.89
2018-02-03T07:55:39.960Z,94163.37
2018-02-03T07:58:06.745Z,94185.65
2018-02-03T08:00:33.716Z,94199.00
2018-02-03T08:03:00.505Z,94188.88
2018-02-03T08:05:27.285Z,94208.48
2018-02-03T08:07:55.040Z,94159.02
2018-02-03T08:10:22.211Z,94175.43
2018-02-03T08:12:49.268Z,94151.16
2018-02-03T08:15:16.964Z,94185.51
2018-02-03T08:17:44.135Z,94135.23
2018-02-03T08:20:11.819Z,94145.21
2018-02-03T08:22:38.637Z,94119.59
2018-02-03T08:25:05.640Z,94137.44
2018-02-03T08:27:32.822Z,94147.10
2018-02-03T08:29:59.994Z,94138.28
2018-02-03T08:32:27.780Z,94150.03
2018-02-03T08:34:54.950Z,94137.42
2018-02-03T08:37:22.225Z,94116.03
2018-02-03T08:39:49.398Z,94120.10
2018-02-03T08:42:16.569Z,94119.95
2018-02-03T08:47:14.224Z,94069.55
2018-02-03T08:49:41.182Z,94134.13
2018-02-03T08:52:07.991Z,94135.43
2018-02-03T08:54:34.782Z,94114.61
2018-02-03T08:57:01.568Z,94126.02
2018-02-03T09:07:58.997Z,94154.20
2018-02-03T09:12:30.384Z,94101.20
2018-02-03T09:14:57.337Z,94109.53
2018-02-03T09:20:17.376Z,94121.20
2018-02-03T09:22:44.181Z,94113.99
2018-02-03T09:25:11.119Z,94088.69
2018-02-03T09:27:37.912Z,94077.61
2018-02-03T09:30:09.158Z,94081.25
2018-02-03T09:32:35.960Z,94072.96
2018-02-03T09:35:02.759Z,94093.95
2018-02-03T09:37:29.598Z,94096.76
2018-02-03T09:39:56.386Z,94090.21
2018-02-03T09:42:23.361Z,94068.20
2018-02-03T09:44:50.153Z,94042.27
2018-02-03T09:47:16.949Z,94056.75
2018-02-03T09:49:43.738Z,94051.25
2018-02-03T09:52:10.539Z,94040.23
2018-02-03T09:54:37.507Z,94026.55
2018-02-03T09:57:04.301Z,94035.13
2018-02-03T09:59:31.088Z,94027.95
2018-02-03T10:01:57.963Z,94016.20
2018-02-03T10:04:24.772Z,94017.02
2018-02-03T10:06:51.693Z,93997.91
2018-02-03T10:09:18.499Z,93985.95
2018-02-03T10:11:45.299Z,93995.03
2018-02-03T10:14:12.110Z,93995.67
2018-02-03T10:16:38.910Z,93994.69
2018-02-03T10:19:05.914Z,93996.77
2018-02-03T10:21:32.719Z,94001.60
2018-02-03T10:23:59.541Z,93985.78
2018-02-03T10:32:31.563Z,93972.11
2018-02-03T10:34:58.357Z,93973.30
2018-02-03T10:37:25.292Z,93975.13
2018-02-03T10:39:52.086Z,93963.60
2018-02-03T10:42:18.892Z,93967.11
2018-02-03T10:44:45.688Z,93958.00
2018-02-03T10:47:12.488Z,93918.58
2018-02-03T10:49:39.440Z,93924.94
2018-02-03T10:52:06.272Z,93901.25
2018-02-03T10:54:33.062Z,93885.56
2018-02-03T10:56:59.854Z,93897.20
2018-02-03T10:59:26.659Z,93904.77
2018-02-03T11:01:53.483Z,93899.74
2018-02-03T13:00:44.888Z,93677.23
2018-02-03T13:03:11.692Z,93673.75
2018-02-03T13:05:39.446Z,93675.36
2018-02-03T13:08:06.225Z,93660.29
2018-02-03T13:10:33.008Z,93646.05
2018-02-03T13:12:59.980Z,93652.27
2018-02-03T13:15:26.796Z,93655.56
2018-02-03T13:17:53.592Z,93665.14
2018-02-03T13:20:20.399Z,93673.54
2018-02-03T13:22:47.202Z,93649.80
2018-02-03T13:25:14.194Z,93638.80
2018-02-03T13:27:40.985Z,93622.24
2018-02-03T13:30:08.832Z,93621.06
2018-02-03T13:32:35.616Z,93628.47
2018-02-03T13:35:02.392Z,93619.70
2018-02-03T13:37:29.184Z,93635.17
2018-02-03T13:39:55.977Z,93631.12
2018-02-03T13:42:22.957Z,93632.27
2018-02-03T13:44:49.741Z,93641.41
2018-02-03T13:47:16.521Z,93628.77
2018-02-03T13:49:43.352Z,93610.88
2018-02-03T13:52:10.130Z,93619.38
2018-02-03T13:54:37.074Z,93645.80
2018-02-03T13:57:03.871Z,93634.73
2018-02-03T13:59:30.658Z,93655.12
2018-02-03T14:01:57.459Z,93635.48
2018-02-03T14:04:24.332Z,93650.08
2018-02-03T14:06:51.302Z,93607.14
2018-02-03T14:09:18.139Z,93606.48
2018-02-03T14:11:45.007Z,93596.25
2018-02-03T14:14:11.805Z,93592.16
2018-02-03T14:16:38.597Z,93594.12
2018-02-03T14:19:05.587Z,93580.11
2018-02-03T14:21:32.400Z,93594.41
2018-02-03T14:24:04.834Z,93580.24
2018-02-03T14:26:31.652Z,93603.16
2018-02-03T14:28:58.479Z,93618.28
2018-02-03T14:31:25.271Z,93585.55
2018-02-03T14:33:52.427Z,93606.75
2018-02-03T14:36:19.417Z,93633.80
2018-02-03T14:38:46.224Z,93621.32
2018-02-03T14:41:13.039Z,93615.22
2018-02-03T14:43:39.846Z,93618.14
2018-02-03T14:46:06.647Z,93634.59
2018-02-03T14:48:33.739Z,93616.84
2018-02-03T14:51:00.542Z,93627.97
2018-02-03T14:53:27.338Z,93645.83
2018-02-03T14:55:54.233Z,93627.69
2018-02-03T14:58:21.049Z,93616.16
2018-02-03T15:00:48.000Z,93622.26
2018-02-03T15:03:14.790Z,93657.77
2018-02-03T15:05:41.599Z,93631.53
2018-02-03T15:08:08.412Z,93665.02
2018-02-03T15:10:35.196Z,93674.83
2018-02-03T15:13:02.121Z,93698.97
2018-02-03T15:15:28.914Z,93672.83
2018-02-03T15:17:55.759Z,93705.29
2018-02-03T15:20:22.556Z,93708.69
2018-02-03T15:22:49.353Z,93716.50
2018-02-03T15:25:16.314Z,93722.39
2018-02-03T15:27:43.097Z,93745.55
2018-02-03T15:30:10.064Z,93757.22
2018-02-03T15:32:36.889Z,93752.78
2018-02-03T15:35:03.720Z,93757.66
2018-02-03T15:37:30.565Z,93762.80
2018-02-03T15:39:57.364Z,93757.63
2018-02-03T15:42:24.344Z,93757.39
2018-02-03T15:44:51.137Z,93769.67
2018-02-03T15:47:17.935Z,93764.64
2018-02-03T15:49:44.740Z,93757.16
2018-02-03T15:52:11.539Z,93764.16
2018-02-03T15:54:38.565Z,93755.14
2018-02-03T15:57:05.379Z,93744.74
2018-02-03T15:59:32.196Z,93731.06
2018-02-03T16:01:59.658Z,93747.36
2018-02-03T16:04:26.472Z,93736.21
2018-02-03T16:06:53.522Z,93743.25
2018-02-03T16:09:20.319Z,93719.81
2018-02-03T16:11:47.120Z,93744.91
2018-02-03T16:14:13.946Z,93734.67
2018-02-03T16:16:40.775Z,93730.89
2018-02-03T16:19:07.717Z,93733.13
2018-02-03T16:21:34.547Z,93731.78
2018-02-03T16:24:01.337Z,93753.80
2018-02-03T16:26:28.135Z,93761.87
2018-02-03T16:28:54.950Z,93766.13
2018-02-03T16:31:21.738Z,93773.25
2018-02-03T16:33:49.022Z,93764.53
2018-02-03T16:36:15.995Z,93774.78
2018-02-03T16:38:43.692Z,93773.40
2018-02-03T16:41:10.486Z,93761.58
2018-02-03T16:43:37.276Z,93764.98
2018-02-03T16:46:04.108Z,93743.52
2018-02-03T16:48:31.148Z,93751.79
2018-02-03T16:50:57.947Z,93771.97
2018-02-03T16:53:24.756Z,93759.26
2018-02-03T16:55:51.549Z,93742.95
2018-02-03T16:58:18.350Z,93744.39
2018-02-03T17:00:45.135Z,93760.08
2018-02-03T17:03:11.940Z,93746.66
2018-02-03T17:05:38.891Z,93765.63
2018-02-03T17:08:05.695Z,93734.44
2018-02-03T17:10:33.292Z,93735.40
2018-02-03T17:13:00.094Z,93725.48
2018-02-03T17:15:26.900Z,93758.14
2018-02-03T17:17:53.837Z,93753.59
2018-02-03T17:20:20.670Z,93741.81
2018-02-03T17:22:47.456Z,93756.91
2018-02-03T17:25:14.254Z,93749.41
2018-02-03T17:27:41.049Z,93768.36
2018-02-03T17:30:07.993Z,93753.51
2018-02-03T17:32:34.795Z,93733.42
2018-02-03T17:35:01.619Z,93744.50
2018-02-03T17:37:33.901Z,93726.05
2018-02-03T17:40:00.700Z,93726.44
2018-02-03T17:42:27.632Z,93728.97
2018-02-03T17:47:53.130Z,93731.69
2018-02-03T17:50:19.941Z,93719.81
2018-02-03T17:52:46.804Z,93735.50
2018-02-03T17:55:19.247Z,93742.38
2018-02-03T17:57:46.053Z,93722.83
2018-02-03T18:00:12.847Z,93722.93
2018-02-03T18:02:39.638Z,93736.94
2018-02-03T18:05:06.443Z,93730.80
2018-02-03T18:07:33.238Z,93710.91
2018-02-03T18:10:00.041Z,93718.18
2018-02-03T18:12:26.864Z,93704.97
2018-02-03T18:14:53.854Z,93699.63
2018-02-03T18:17:20.681Z,93713.23
2018-02-03T18:19:47.481Z,93721.94
2018-02-03T18:22:14.525Z,93721.80
2018-02-03T18:24:41.349Z,93707.94
2018-02-03T18:27:08.151Z,93732.73
2018-02-03T18:29:35.287Z,93726.20
2018-02-03T18:32:02.216Z,93734.44
2018-02-03T18:34:29.005Z,93749.02
2018-02-03T18:36:55.811Z,93745.64
2018-02-03T18:39:22.616Z,93743.37
2018-02-03T18:41:49.420Z,93720.80
2018-02-03T18:44:16.349Z,93735.20
2018-02-03T18:46:43.151Z,93739.70
2018-02-03T18:49:09.951Z,93733.57
2018-02-03T18:51:36.738Z,93752.42
2018-02-03T18:54:03.547Z,93759.00
2018-02-03T18:56:30.475Z,93757.81
2018-02-03T18:58:57.286Z,93776.81
2018-02-03T19:01:24.226Z,93769.20
2018-02-03T19:03:51.032Z,93786.73
2018-02-03T19:06:17.831Z,93750.87
2018-02-03T19:08:44.630Z,93764.23
2018-02-03T19:12:00.118Z,93774.61
2018-02-03T19:14:26.970Z,93776.59
2018-02-03T19:16:58.544Z,93765.49
2018-02-03T19:19:25.370Z,93788.87
2018-02-03T19:21:52.171Z,93769.09
2018-02-03T19:24:19.110Z,93780.41
2018-02-03T19:26:45.902Z,93811.76
2018-02-03T19:29:12.751Z,93801.06
2018-02-03T19:31:39.533Z,93779.26
2018-02-03T19:34:06.330Z,93775.83
2018-02-03T19:36:33.266Z,93788.16
2018-02-03T19:39:00.063Z,93817.64
2018-02-03T19:41:26.858Z,93818.82
2018-02-03T19:43:54.645Z,93806.46
2018-02-03T19:46:21.442Z,93789.63
2018-02-03T19:48:48.390Z,93803.48
2018-02-03T19:51:15.173Z,93795.63
2018-02-03T19:53:41.985Z,93776.77
2018-02-03T19:56:08.770Z,93769.27
2018-02-03T19:58:35.549Z,93787.63
2018-02-03T20:01:02.348Z,93778.41
2018-02-03T20:03:29.142Z,93748.79
2018-02-03T20:05:56.167Z,93781.20
2018-02-03T20:08:22.964Z,93790.45
2018-02-03T20:10:49.769Z,93775.36
2018-02-03T20:13:17.325Z,93771.41
2018-02-03T20:15:44.132Z,93788.66
2018-02-03T20:18:11.060Z,93790.25
2018-02-03T20:20:37.867Z,93771.63
2018-02-03T20:23:04.657Z,93780.05
2018-02-03T20:25:31.441Z,93749.31
2018-02-03T20:27:58.243Z,93770.44
2018-02-03T20:30:25.029Z,93764.44
2018-02-03T20:32:51.813Z,93795.84
2018-02-03T20:35:18.602Z,93795.78
2018-02-03T20:37:46.073Z,93802.88
2018-02-03T20:40:12.867Z,93800.28
2018-02-03T20:42:39.654Z,93798.16
2018-02-03T20:45:07.566Z,93781.55
2018-02-03T20:47:34.365Z,93791.95
2018-02-03T20:50:01.171Z,93800.77
2018-02-03T20:52:28.225Z,93802.97
2018-02-03T20:54:55.573Z,93793.74
2018-02-03T20:57:24.228Z,93780.35
2018-02-03T20:59:51.167Z,93794.59
2018-02-03T21:02:18.150Z,93787.05
2018-02-03T21:04:44.924Z,93791.25
2018-02-03T21:07:11.709Z,93767.20
2018-02-03T21:09:38.747Z,93772.56
2018-02-03T21:12:05.544Z,93756.41
2018-02-03T21:14:32.339Z,93780.05
2018-02-03T21:16:59.132Z,93763.03
2018-02-03T21:19:25.960Z,93740.42
2018-02-03T21:21:53.168Z,93739.16
2018-02-03T21:24:19.971Z,93692.48
2018-02-03T21:26:46.752Z,93703.16
2018-02-03T21:29:13.529Z,93717.58
2018-02-03T21:31:40.544Z,93707.08
2018-02-03T21:34:07.354Z,93710.64
2018-02-03T21:36:34.153Z,93724.24
2018-02-03T21:39:00.948Z,93725.12
2018-02-03T21:41:27.741Z,93748.34
2018-02-03T21:43:54.669Z,93766.54
2018-02-03T21:46:21.461Z,93769.91
2018-02-03T21:48:48.250Z,93748.89
2018-02-03T21:51:15.043Z,93748.34
2018-02-03T21:53:41.841Z,93757.11
2018-02-03T21:56:08.866Z,93768.76
2018-02-03T21:58:35.704Z,93756.38
2018-02-03T22:01:02.682Z,93753.30
2018-02-03T22:03:29.479Z,93732.58
2018-02-03T22:05:56.327Z,93742.20
2018-02-03T22:08:23.111Z,93745.72
2018-02-03T22:10:49.931Z,93765.41
2018-02-03T22:13:16.910Z,93758.47
2018-02-03T22:15:43.706Z,93765.16
2018-02-03T22:18:10.499Z,93763.89
2018-02-03T22:20:37.517Z,93759.17
2018-02-03T22:23:04.317Z,93744.11
2018-02-03T22:25:31.244Z,93755.12
2018-02-03T22:27:58.036Z,93748.03
2018-02-03T22:30:25.070Z,93749.53
2018-02-03T22:32:51.862Z,93757.70
2018-02-03T22:35:18.650Z,93766.68
2018-02-03T22:37:45.443Z,93759.35
2018-02-03T22:40:12.230Z,93763.37
2018-02-03T22:42:39.203Z,93755.34
2018-02-03T22:45:06.003Z,93763.09
2018-02-03T22:47:32.798Z,93772.22
2018-02-03T22:49:59.591Z,93753.94
2018-02-03T22:52:26.388Z,93755.67
2018-02-03T22:54:53.422Z,93753.94
2018-02-03T22:57:20.211Z,93754.62
2018-02-03T22:59:46.986Z,93784.23
2018-02-03T23:02:19.365Z,93796.13
2018-02-03T23:04:46.142Z,93770.20
2018-02-03T23:07:13.159Z,93766.19
2018-02-03T23:09:39.989Z,93773.18
2018-02-03T23:12:06.782Z,93774.91
2018-02-03T23:14:33.556Z,93779.48
2018-02-03T23:17:00.348Z,93774.42
2018-02-03T23:19:27.396Z,93786.08
2018-02-03T23:21:54.191Z,93790.61
2018-02-03T23:24:20.978Z,93785.80
2018-02-03T23:26:47.768Z,93800.80
2018-02-03T23:29:14.605Z,93807.48
2018-02-03T23:31:41.388Z,93809.64
2018-02-03T23:34:08.213Z,93816.88
2018-02-03T23:36:35.244Z,93813.16
2018-02-03T23:39:02.026Z,93807.56
2018-02-03T23:41:28.843Z,93806.13
2018-02-03T23:43:55.636Z,93800.35
2018-02-03T23:46:22.434Z,93792.88
2018-02-03T23:48:49.362Z,93785.30
2018-02-03T23:51:16.161Z,93795.30
2018-02-03T23:53:42.986Z,93780.19
2018-02-03T23:56:09.829Z,93776.88
2018-02-03T23:58:36.667Z,93770.33
